Time;durP1;ratioP1;P1;durP2;ratioP2;P2;SDS_P1;SDS_P2;PMS_P1;PMS_P2;Temp;Humidity;BMP_temperature;BMP_pressure;BME280_temperature;BME280_humidity;BME280_pressure;Samples;Min_cycle;Max_cycle;Signal;HPM_P1;HPM_P2
2021/11/28 00:01:09;;;;;;;6.25;3.20;;;;;;;;;;5011047;28;20131;-67
2021/11/28 00:03:36;;;;;;;7.18;4.00;;;;;;;;;;5011565;28;20662;-66
2021/11/28 00:06:05;;;;;;;11.98;5.47;;;;;;;;;;5012522;28;20184;-66
2021/11/28 00:11:27;;;;;;;13.65;7.25;;;;;;;;;;5083146;27;1369725;-66
2021/11/28 00:14:05;;;;;;;12.38;6.38;;;;;;;;;;5114184;27;20062;-66
2021/11/28 00:16:33;;;;;;;11.73;6.75;;;;;;;;;;5110843;27;20502;-66
2021/11/28 00:19:00;;;;;;;12.52;5.70;;;;;;;;;;5109728;27;20055;-66
2021/11/28 00:21:26;;;;;;;8.27;4.60;;;;;;;;;;5109165;27;20043;-66
2021/11/28 00:23:53;;;;;;;7.88;3.63;;;;;;;;;;5106324;27;20078;-66
2021/11/28 00:26:20;;;;;;;6.40;2.47;;;;;;;;;;5105462;27;20043;-66
2021/11/28 00:28:48;;;;;;;5.65;3.15;;;;;;;;;;5107822;27;20146;-66
2021/11/28 00:31:14;;;;;;;5.65;2.83;;;;;;;;;;5109728;27;20095;-66
2021/11/28 00:33:41;;;;;;;5.28;2.67;;;;;;;;;;5112613;27;20102;-66
2021/11/28 00:36:08;;;;;;;9.40;3.35;;;;;;;;;;5109690;27;20058;-66
2021/11/28 00:38:36;;;;;;;5.68;2.72;;;;;;;;;;5109064;27;20050;-66
2021/11/28 00:41:02;;;;;;;5.72;2.67;;;;;;;;;;5109697;27;20169;-66
2021/11/28 00:43:29;;;;;;;5.45;2.40;;;;;;;;;;5111538;27;20452;-66
2021/11/28 00:45:57;;;;;;;5.05;1.80;;;;;;;;;;5111002;27;20128;-66
2021/11/28 00:48:28;;;;;;;3.47;2.00;;;;;;;;;;5112215;27;20047;-66
2021/11/28 00:51:11;;;;;;;3.85;2.15;;;;;;;;;;5110444;27;20048;-66
2021/11/28 00:53:37;;;;;;;5.25;1.83;;;;;;;;;;5102889;27;20055;-66
2021/11/28 00:56:04;;;;;;;3.35;1.45;;;;;;;;;;5102601;27;20072;-66
2021/11/28 00:58:31;;;;;;;3.83;1.70;;;;;;;;;;5104801;27;20040;-66
2021/11/28 01:00:59;;;;;;;4.07;1.85;;;;;;;;;;5105295;27;20083;-66
2021/11/28 01:03:25;;;;;;;2.83;1.70;;;;;;;;;;5101810;27;20170;-66
2021/11/28 01:05:53;;;;;;;3.35;1.83;;;;;;;;;;5103202;27;20048;-66
2021/11/28 01:08:20;;;;;;;4.22;2.00;;;;;;;;;;5101183;27;20132;-66
2021/11/28 01:10:47;;;;;;;2.90;1.70;;;;;;;;;;5104128;27;20613;-67
2021/11/28 01:13:13;;;;;;;3.63;2.00;;;;;;;;;;5104035;27;20051;-66
2021/11/28 01:15:40;;;;;;;2.72;1.92;;;;;;;;;;5102619;27;20467;-66
2021/11/28 01:18:08;;;;;;;3.88;2.05;;;;;;;;;;5100710;27;20079;-67
2021/11/28 01:20:35;;;;;;;4.72;2.30;;;;;;;;;;5103687;27;20070;-67
2021/11/28 01:23:01;;;;;;;4.05;2.00;;;;;;;;;;5090769;27;20502;-67
2021/11/28 01:25:28;;;;;;;5.18;1.85;;;;;;;;;;5089811;27;20052;-66
2021/11/28 01:27:54;;;;;;;2.03;1.50;;;;;;;;;;5089177;28;20059;-66
2021/11/28 01:30:21;;;;;;;5.53;1.92;;;;;;;;;;5087918;27;20140;-66
2021/11/28 01:32:48;;;;;;;2.67;1.77;;;;;;;;;;5088889;28;20083;-66
2021/11/28 01:35:17;;;;;;;4.05;1.92;;;;;;;;;;5088454;27;20043;-67
2021/11/28 01:37:45;;;;;;;5.18;2.15;;;;;;;;;;5090760;27;20097;-66
2021/11/28 01:40:16;;;;;;;3.90;2.13;;;;;;;;;;5090509;27;20072;-66
2021/11/28 01:42:44;;;;;;;3.05;1.52;;;;;;;;;;5087256;27;21405;-66
2021/11/28 01:45:13;;;;;;;3.08;1.77;;;;;;;;;;5089343;28;20089;-66
2021/11/28 01:47:40;;;;;;;4.30;2.22;;;;;;;;;;5088955;27;20078;-66
2021/11/28 01:50:07;;;;;;;5.00;1.90;;;;;;;;;;5090684;27;20139;-66
2021/11/28 01:52:36;;;;;;;3.40;1.85;;;;;;;;;;5089506;28;20109;-66
2021/11/28 01:55:05;;;;;;;4.22;2.25;;;;;;;;;;5086738;28;20044;-66
2021/11/28 01:57:32;;;;;;;3.60;1.88;;;;;;;;;;5072645;28;21802;-66
2021/11/28 01:59:59;;;;;;;5.40;1.42;;;;;;;;;;5090545;27;20523;-66
2021/11/28 02:02:26;;;;;;;4.63;2.15;;;;;;;;;;5088997;27;20075;-66
2021/11/28 02:04:54;;;;;;;4.13;1.50;;;;;;;;;;5088224;28;20067;-66
2021/11/28 02:07:21;;;;;;;5.63;1.90;;;;;;;;;;5089461;27;20075;-66
2021/11/28 02:09:49;;;;;;;3.53;1.73;;;;;;;;;;5090509;27;20169;-66
2021/11/28 02:12:16;;;;;;;7.30;1.90;;;;;;;;;;5087183;28;20076;-66
2021/11/28 02:14:42;;;;;;;3.75;1.80;;;;;;;;;;5087565;28;20525;-66
2021/11/28 02:17:11;;;;;;;5.55;1.83;;;;;;;;;;5088154;27;20136;-66
2021/11/28 02:19:37;;;;;;;5.05;1.92;;;;;;;;;;5084955;27;20051;-66
2021/11/28 02:22:05;;;;;;;6.00;1.90;;;;;;;;;;5088921;27;20101;-66
2021/11/28 02:24:32;;;;;;;5.50;1.90;;;;;;;;;;5085395;28;20082;-66
2021/11/28 02:26:58;;;;;;;5.25;2.13;;;;;;;;;;5086562;27;20125;-66
2021/11/28 02:29:25;;;;;;;4.38;2.03;;;;;;;;;;5088443;27;20079;-66
2021/11/28 02:31:51;;;;;;;4.65;1.90;;;;;;;;;;5088692;27;20079;-66
2021/11/28 02:34:20;;;;;;;2.47;1.73;;;;;;;;;;5085234;28;20473;-66
2021/11/28 02:36:51;;;;;;;4.07;2.35;;;;;;;;;;5085878;28;20167;-66
2021/11/28 02:39:19;;;;;;;6.28;2.00;;;;;;;;;;5090298;27;20051;-66
2021/11/28 02:41:46;;;;;;;3.75;2.00;;;;;;;;;;5087431;27;20551;-66
2021/11/28 02:44:13;;;;;;;4.68;2.38;;;;;;;;;;5082354;28;20060;-66
2021/11/28 02:46:40;;;;;;;5.60;2.38;;;;;;;;;;5088254;28;20146;-66
2021/11/28 02:49:07;;;;;;;4.18;2.25;;;;;;;;;;5087945;27;20057;-66
2021/11/28 02:51:34;;;;;;;6.07;2.33;;;;;;;;;;5086511;27;20490;-66
2021/11/28 02:54:01;;;;;;;5.07;1.95;;;;;;;;;;5088519;28;20102;-66
2021/11/28 02:56:29;;;;;;;4.00;1.80;;;;;;;;;;5091892;28;20048;-66
2021/11/28 02:58:56;;;;;;;4.20;1.73;;;;;;;;;;5088159;27;20055;-66
2021/11/28 03:01:24;;;;;;;3.42;1.92;;;;;;;;;;5089816;27;20127;-66
2021/11/28 03:03:51;;;;;;;4.35;1.92;;;;;;;;;;5087101;28;20154;-66
2021/11/28 03:06:18;;;;;;;3.45;1.70;;;;;;;;;;5087268;27;20464;-66
2021/11/28 03:08:45;;;;;;;3.58;1.83;;;;;;;;;;5087072;27;20071;-66
2021/11/28 03:11:14;;;;;;;3.10;1.92;;;;;;;;;;5086608;27;20134;-66
2021/11/28 03:13:44;;;;;;;3.10;1.60;;;;;;;;;;5086528;27;20056;-66
2021/11/28 03:16:13;;;;;;;3.97;2.00;;;;;;;;;;5068968;28;20075;-66
2021/11/28 03:18:41;;;;;;;2.72;1.42;;;;;;;;;;5087218;28;20079;-66
2021/11/28 03:21:10;;;;;;;5.15;2.25;;;;;;;;;;5084569;27;20079;-66
2021/11/28 03:23:37;;;;;;;3.50;1.55;;;;;;;;;;5085509;27;20083;-66
2021/11/28 03:26:09;;;;;;;3.97;1.60;;;;;;;;;;5086156;28;20082;-66
2021/11/28 03:28:36;;;;;;;3.33;2.03;;;;;;;;;;5086337;27;20051;-67
2021/11/28 03:31:04;;;;;;;2.83;1.65;;;;;;;;;;5087635;27;20048;-66
2021/11/28 03:33:31;;;;;;;3.22;1.83;;;;;;;;;;5086092;28;20048;-66
2021/11/28 03:35:58;;;;;;;2.72;1.65;;;;;;;;;;5085028;28;20131;-66
2021/11/28 03:38:25;;;;;;;4.25;2.25;;;;;;;;;;5086774;27;21306;-66
2021/11/28 03:40:52;;;;;;;3.25;1.63;;;;;;;;;;5085494;28;20239;-66
2021/11/28 03:43:18;;;;;;;2.92;1.60;;;;;;;;;;5084947;28;20059;-66
2021/11/28 03:45:45;;;;;;;5.57;1.70;;;;;;;;;;5086635;28;20058;-66
2021/11/28 03:48:13;;;;;;;4.47;2.13;;;;;;;;;;5087448;28;20789;-66
2021/11/28 03:50:39;;;;;;;3.25;1.80;;;;;;;;;;5084590;28;20084;-67
2021/11/28 03:53:06;;;;;;;3.47;1.40;;;;;;;;;;5086769;28;20048;-67
2021/11/28 03:55:33;;;;;;;4.32;1.80;;;;;;;;;;5086852;28;20047;-67
2021/11/28 03:58:00;;;;;;;4.07;1.50;;;;;;;;;;5085215;28;20048;-67
2021/11/28 04:00:26;;;;;;;3.38;2.08;;;;;;;;;;5087838;28;20052;-67
2021/11/28 04:02:53;;;;;;;4.78;2.00;;;;;;;;;;5085509;28;20531;-67
2021/11/28 04:05:21;;;;;;;6.25;1.90;;;;;;;;;;5085478;28;20047;-67
2021/11/28 04:07:47;;;;;;;2.95;1.67;;;;;;;;;;5085282;28;20090;-67
2021/11/28 04:10:14;;;;;;;4.97;2.10;;;;;;;;;;5089070;28;20147;-67
2021/11/28 04:12:40;;;;;;;3.72;2.03;;;;;;;;;;5085317;28;20442;-67
2021/11/28 04:15:08;;;;;;;4.50;2.08;;;;;;;;;;5086292;28;20087;-67
2021/11/28 04:17:35;;;;;;;3.60;2.15;;;;;;;;;;5087422;28;20172;-67
2021/11/28 04:20:02;;;;;;;3.78;1.95;;;;;;;;;;5086059;28;20137;-67
2021/11/28 04:22:30;;;;;;;4.32;2.20;;;;;;;;;;5084661;28;20079;-67
2021/11/28 04:24:56;;;;;;;4.05;2.05;;;;;;;;;;5084933;28;20506;-67
2021/11/28 04:27:23;;;;;;;4.55;2.20;;;;;;;;;;5087339;28;20138;-67
2021/11/28 04:29:50;;;;;;;4.90;2.47;;;;;;;;;;5087543;28;20135;-67
2021/11/28 04:32:17;;;;;;;2.85;1.70;;;;;;;;;;5087357;28;20047;-67
2021/11/28 04:34:44;;;;;;;3.85;2.40;;;;;;;;;;5084215;28;20056;-67
2021/11/28 04:37:10;;;;;;;5.32;2.75;;;;;;;;;;5085840;28;20126;-67
2021/11/28 04:39:39;;;;;;;3.38;1.88;;;;;;;;;;5084944;28;20152;-67
2021/11/28 04:42:08;;;;;;;2.50;1.60;;;;;;;;;;5086442;28;20128;-67
2021/11/28 04:44:35;;;;;;;3.05;1.88;;;;;;;;;;5086392;28;20125;-67
2021/11/28 04:47:01;;;;;;;4.30;1.65;;;;;;;;;;5087077;28;20067;-67
2021/11/28 04:49:30;;;;;;;3.60;2.00;;;;;;;;;;5087148;28;20071;-67
2021/11/28 04:51:57;;;;;;;3.42;1.65;;;;;;;;;;5087242;28;20137;-67
2021/11/28 04:54:24;;;;;;;3.28;1.70;;;;;;;;;;5087691;28;20062;-67
2021/11/28 04:56:52;;;;;;;4.53;1.65;;;;;;;;;;5088000;28;20060;-67
2021/11/28 04:59:18;;;;;;;3.08;1.60;;;;;;;;;;5090880;27;20381;-67
2021/11/28 05:01:45;;;;;;;4.10;1.80;;;;;;;;;;5092753;27;20051;-67
2021/11/28 05:04:11;;;;;;;4.10;1.63;;;;;;;;;;5092445;28;20051;-67
2021/11/28 05:06:38;;;;;;;2.90;1.75;;;;;;;;;;5089547;28;20081;-67
2021/11/28 05:09:05;;;;;;;3.10;1.50;;;;;;;;;;5090501;27;20067;-67
2021/11/28 05:11:32;;;;;;;3.67;1.80;;;;;;;;;;5089394;27;20535;-67
2021/11/28 05:14:00;;;;;;;4.22;2.00;;;;;;;;;;5088452;27;20119;-67
2021/11/28 05:16:26;;;;;;;2.65;1.50;;;;;;;;;;5091199;27;20056;-67
2021/11/28 05:18:53;;;;;;;4.95;2.65;;;;;;;;;;5091026;27;20818;-67
2021/11/28 05:21:22;;;;;;;5.07;2.90;;;;;;;;;;5089595;27;20446;-67
2021/11/28 05:23:49;;;;;;;7.43;3.15;;;;;;;;;;5086454;27;20484;-67
2021/11/28 05:26:15;;;;;;;5.03;2.47;;;;;;;;;;5087873;28;20514;-67
2021/11/28 05:28:42;;;;;;;4.50;2.63;;;;;;;;;;5090653;27;20058;-67
2021/11/28 05:31:16;;;;;;;5.07;1.88;;;;;;;;;;5089552;27;20431;-67
2021/11/28 05:33:44;;;;;;;3.00;1.45;;;;;;;;;;5087186;28;20052;-67
2021/11/28 05:36:10;;;;;;;2.63;1.58;;;;;;;;;;5090277;27;20079;-67
2021/11/28 05:38:37;;;;;;;2.67;1.70;;;;;;;;;;5090040;27;20070;-67
2021/11/28 05:41:03;;;;;;;3.88;1.88;;;;;;;;;;5088791;27;20058;-67
2021/11/28 05:43:30;;;;;;;3.53;1.50;;;;;;;;;;5091258;28;20403;-67
2021/11/28 05:45:57;;;;;;;5.28;2.03;;;;;;;;;;5087176;27;20109;-67
2021/11/28 05:48:25;;;;;;;3.38;1.35;;;;;;;;;;5087627;27;20087;-67
2021/11/28 05:50:51;;;;;;;3.13;1.63;;;;;;;;;;5088636;27;20127;-67
2021/11/28 05:53:18;;;;;;;2.67;1.52;;;;;;;;;;5088760;27;20083;-67
2021/11/28 05:55:44;;;;;;;3.28;1.73;;;;;;;;;;5069802;28;20169;-67
2021/11/28 05:58:11;;;;;;;2.00;1.30;;;;;;;;;;5088734;27;20166;-67
2021/11/28 06:00:38;;;;;;;2.85;1.48;;;;;;;;;;5090277;27;20105;-67
2021/11/28 06:03:05;;;;;;;5.70;1.73;;;;;;;;;;5088810;27;20459;-67
2021/11/28 06:05:33;;;;;;;2.63;1.73;;;;;;;;;;5088430;27;20101;-67
2021/11/28 06:08:00;;;;;;;2.78;1.27;;;;;;;;;;5086675;28;20119;-67
2021/11/28 06:10:27;;;;;;;2.90;1.92;;;;;;;;;;5087439;27;20052;-67
2021/11/28 06:12:53;;;;;;;3.65;1.77;;;;;;;;;;5087275;27;20101;-67
2021/11/28 06:15:20;;;;;;;3.10;1.73;;;;;;;;;;5086261;28;20044;-67
2021/11/28 06:17:47;;;;;;;4.38;1.83;;;;;;;;;;5087284;28;20056;-67
2021/11/28 06:20:13;;;;;;;3.30;1.58;;;;;;;;;;5088838;27;20072;-67
2021/11/28 06:22:42;;;;;;;2.85;1.80;;;;;;;;;;5087672;27;20047;-67
2021/11/28 06:25:09;;;;;;;3.25;1.60;;;;;;;;;;5087839;28;20056;-67
2021/11/28 06:27:36;;;;;;;3.15;1.65;;;;;;;;;;5087096;27;20105;-67
2021/11/28 06:30:03;;;;;;;3.83;1.88;;;;;;;;;;5090056;27;20055;-67
2021/11/28 06:32:30;;;;;;;2.97;1.67;;;;;;;;;;5088423;27;20048;-67
2021/11/28 06:34:56;;;;;;;3.47;2.00;;;;;;;;;;5086469;27;20091;-67
2021/11/28 06:37:23;;;;;;;7.22;2.05;;;;;;;;;;5087834;28;20521;-67
2021/11/28 06:39:51;;;;;;;4.45;1.75;;;;;;;;;;5087793;27;20516;-67
2021/11/28 06:42:17;;;;;;;5.10;1.77;;;;;;;;;;5085022;28;20075;-67
2021/11/28 06:44:44;;;;;;;3.85;1.80;;;;;;;;;;5084452;27;20152;-67
2021/11/28 06:47:11;;;;;;;7.13;2.42;;;;;;;;;;5084309;28;20055;-67
2021/11/28 06:49:38;;;;;;;23.13;3.50;;;;;;;;;;5088302;27;20100;-67
2021/11/28 06:52:05;;;;;;;7.60;2.63;;;;;;;;;;5086545;28;20075;-67
2021/11/28 06:54:31;;;;;;;22.50;6.50;;;;;;;;;;5087508;27;20140;-67
2021/11/28 06:56:59;;;;;;;29.98;9.45;;;;;;;;;;5086987;27;20071;-67
2021/11/28 06:59:26;;;;;;;17.67;6.80;;;;;;;;;;5086471;27;20047;-67
2021/11/28 07:01:53;;;;;;;7.30;3.83;;;;;;;;;;5088339;27;20141;-67
2021/11/28 07:04:20;;;;;;;8.10;3.53;;;;;;;;;;5086126;28;20681;-67
2021/11/28 07:06:46;;;;;;;4.78;2.75;;;;;;;;;;5087304;28;20047;-67
2021/11/28 07:09:13;;;;;;;4.78;2.00;;;;;;;;;;5086394;27;20102;-67
2021/11/28 07:11:39;;;;;;;5.80;2.10;;;;;;;;;;5082976;28;20059;-67
2021/11/28 07:14:07;;;;;;;2.70;1.58;;;;;;;;;;5084047;28;20048;-67
2021/11/28 07:16:34;;;;;;;12.48;2.35;;;;;;;;;;5087629;27;20052;-67
2021/11/28 07:19:01;;;;;;;9.70;1.83;;;;;;;;;;5086391;27;20093;-67
2021/11/28 07:21:27;;;;;;;5.38;1.73;;;;;;;;;;5084900;27;20056;-67
2021/11/28 07:23:54;;;;;;;10.95;2.53;;;;;;;;;;5082327;28;20052;-67
2021/11/28 07:26:20;;;;;;;8.75;2.60;;;;;;;;;;5086164;28;20079;-67
2021/11/28 07:28:47;;;;;;;5.50;1.67;;;;;;;;;;5087391;27;21183;-67
2021/11/28 07:31:16;;;;;;;37.42;13.85;;;;;;;;;;5086841;28;20080;-67
2021/11/28 07:33:42;;;;;;;43.03;16.38;;;;;;;;;;5084274;28;20076;-67
2021/11/28 07:36:09;;;;;;;17.40;8.13;;;;;;;;;;5067764;28;20595;-67
2021/11/28 07:38:37;;;;;;;17.02;7.93;;;;;;;;;;5090036;27;20071;-67
2021/11/28 07:41:04;;;;;;;15.70;6.88;;;;;;;;;;5087048;27;20093;-67
2021/11/28 07:43:31;;;;;;;10.75;5.65;;;;;;;;;;5084643;27;20139;-67
2021/11/28 07:45:58;;;;;;;10.25;7.78;;;;;;;;;;5088670;28;20055;-67
2021/11/28 07:48:26;;;;;;;15.82;8.13;;;;;;;;;;5091069;28;20070;-67
2021/11/28 07:50:53;;;;;;;9.00;5.88;;;;;;;;;;5087409;27;20047;-67
2021/11/28 07:53:20;;;;;;;13.93;4.70;;;;;;;;;;5084664;27;20052;-67
2021/11/28 07:55:46;;;;;;;11.20;3.38;;;;;;;;;;5085262;28;20040;-67
2021/11/28 07:58:13;;;;;;;6.75;3.13;;;;;;;;;;5086694;28;20079;-67
2021/11/28 08:00:40;;;;;;;4.82;2.55;;;;;;;;;;5086568;27;20051;-66
2021/11/28 08:03:07;;;;;;;4.68;2.95;;;;;;;;;;5086354;28;20051;-67
2021/11/28 08:05:35;;;;;;;4.18;2.72;;;;;;;;;;5088106;28;21425;-67
2021/11/28 08:08:01;;;;;;;5.70;2.63;;;;;;;;;;5085707;28;20071;-67
2021/11/28 08:10:28;;;;;;;6.25;2.80;;;;;;;;;;5084752;28;20178;-67
2021/11/28 08:12:54;;;;;;;7.05;3.50;;;;;;;;;;5085586;28;20071;-67
2021/11/28 08:15:21;;;;;;;6.53;3.90;;;;;;;;;;5085306;28;20072;-67
2021/11/28 08:17:48;;;;;;;5.38;3.35;;;;;;;;;;5086368;28;20072;-67
2021/11/28 08:20:15;;;;;;;4.97;3.42;;;;;;;;;;5084506;28;20535;-67
2021/11/28 08:22:43;;;;;;;5.25;3.33;;;;;;;;;;5086280;28;20133;-67
2021/11/28 08:25:13;;;;;;;4.53;2.97;;;;;;;;;;5083863;28;20052;-67
2021/11/28 08:27:40;;;;;;;5.80;3.63;;;;;;;;;;5085338;28;20055;-67
2021/11/28 08:30:11;;;;;;;6.95;4.15;;;;;;;;;;5085596;28;20112;-67
2021/11/28 08:32:39;;;;;;;5.47;2.50;;;;;;;;;;5088171;27;20071;-67
2021/11/28 08:35:06;;;;;;;5.82;2.35;;;;;;;;;;5093600;28;20052;-67
2021/11/28 08:37:33;;;;;;;6.25;3.10;;;;;;;;;;5088660;27;20519;-67
2021/11/28 08:40:03;;;;;;;7.32;2.58;;;;;;;;;;5090158;27;20052;-67
2021/11/28 08:42:32;;;;;;;5.78;2.80;;;;;;;;;;5092005;27;20070;-66
2021/11/28 08:44:59;;;;;;;5.07;2.95;;;;;;;;;;5089552;27;20490;-67
2021/11/28 08:47:25;;;;;;;8.77;3.13;;;;;;;;;;5087371;27;20120;-66
2021/11/28 08:49:52;;;;;;;9.57;3.42;;;;;;;;;;5088755;27;20063;-67
2021/11/28 08:52:19;;;;;;;8.75;3.80;;;;;;;;;;5089206;28;20075;-66
2021/11/28 08:54:45;;;;;;;11.65;4.03;;;;;;;;;;5087670;28;20052;-66
2021/11/28 08:57:13;;;;;;;5.95;3.78;;;;;;;;;;5086052;28;20729;-66
2021/11/28 08:59:41;;;;;;;10.13;4.10;;;;;;;;;;5090276;27;20079;-66
2021/11/28 09:02:09;;;;;;;4.97;2.80;;;;;;;;;;5087578;28;20052;-66
2021/11/28 09:04:36;;;;;;;10.48;2.65;;;;;;;;;;5089255;27;20105;-66
2021/11/28 09:07:03;;;;;;;10.23;2.78;;;;;;;;;;5087145;28;20097;-66
2021/11/28 09:09:29;;;;;;;12.95;3.15;;;;;;;;;;5089374;27;20082;-67
2021/11/28 09:11:57;;;;;;;4.72;3.17;;;;;;;;;;5085910;27;20125;-66
2021/11/28 09:14:26;;;;;;;5.43;2.30;;;;;;;;;;5087333;27;20113;-68
2021/11/28 09:16:52;;;;;;;4.75;2.40;;;;;;;;;;5084044;27;20441;-67
2021/11/28 09:19:22;;;;;;;4.85;2.42;;;;;;;;;;5088063;27;20834;-67
2021/11/28 09:21:49;;;;;;;4.35;2.30;;;;;;;;;;5086774;27;20048;-67
2021/11/28 09:24:36;;;;;;;5.20;2.47;;;;;;;;;;5086795;28;20048;-67
2021/11/28 09:27:06;;;;;;;4.00;2.17;;;;;;;;;;5084652;27;20052;-67
2021/11/28 09:29:35;;;;;;;4.25;2.67;;;;;;;;;;5089186;27;20036;-67
2021/11/28 09:32:01;;;;;;;3.88;2.08;;;;;;;;;;5087054;27;20052;-67
2021/11/28 09:34:28;;;;;;;11.98;2.78;;;;;;;;;;5088927;27;20135;-67
2021/11/28 09:36:54;;;;;;;4.95;2.20;;;;;;;;;;5087925;27;20071;-67
2021/11/28 09:39:21;;;;;;;3.90;2.17;;;;;;;;;;5088811;27;20071;-67
2021/11/28 09:41:52;;;;;;;5.05;3.60;;;;;;;;;;5086287;27;20134;-67
2021/11/28 09:44:19;;;;;;;7.15;5.03;;;;;;;;;;5088381;27;20086;-67
2021/11/28 09:46:47;;;;;;;9.68;3.97;;;;;;;;;;5087498;27;20106;-67
2021/11/28 09:49:14;;;;;;;6.68;3.45;;;;;;;;;;5089073;27;20048;-67
2021/11/28 09:51:43;;;;;;;7.78;3.50;;;;;;;;;;5089434;28;20606;-67
2021/11/28 09:54:10;;;;;;;7.80;3.25;;;;;;;;;;5086828;27;20529;-67
2021/11/28 09:56:40;;;;;;;11.32;3.90;;;;;;;;;;5086487;27;20087;-67
2021/11/28 09:59:09;;;;;;;9.10;3.78;;;;;;;;;;5088677;27;20047;-67
2021/11/28 10:01:37;;;;;;;6.72;3.85;;;;;;;;;;5088139;27;20048;-67
2021/11/28 10:04:05;;;;;;;6.28;3.53;;;;;;;;;;5086411;27;20100;-67
2021/11/28 10:06:33;;;;;;;6.28;3.50;;;;;;;;;;5089684;27;20463;-67
2021/11/28 10:09:04;;;;;;;8.15;3.40;;;;;;;;;;5089336;27;20506;-67
2021/11/28 10:12:08;;;;;;;4.30;2.60;;;;;;;;;;5084577;27;20182;-67
2021/11/28 10:14:35;;;;;;;5.47;2.85;;;;;;;;;;5088750;27;20530;-67
2021/11/28 10:17:01;;;;;;;5.38;3.45;;;;;;;;;;5087030;27;20127;-67
2021/11/28 10:19:32;;;;;;;8.77;3.08;;;;;;;;;;5089220;27;20051;-67
2021/11/28 10:21:59;;;;;;;4.60;3.00;;;;;;;;;;5068457;28;21319;-67
2021/11/28 10:24:26;;;;;;;7.25;2.30;;;;;;;;;;5084922;28;20121;-67
2021/11/28 10:26:54;;;;;;;5.20;2.97;;;;;;;;;;5082781;28;20096;-67
2021/11/28 10:29:22;;;;;;;5.13;3.00;;;;;;;;;;5084305;27;20052;-67
2021/11/28 10:31:50;;;;;;;4.97;2.95;;;;;;;;;;5082062;28;20088;-67
2021/11/28 10:34:18;;;;;;;7.35;3.45;;;;;;;;;;5083528;28;20127;-67
2021/11/28 10:36:46;;;;;;;6.00;3.50;;;;;;;;;;5084723;28;20051;-67
2021/11/28 10:39:15;;;;;;;9.27;4.35;;;;;;;;;;5085347;27;21068;-67
2021/11/28 10:41:48;;;;;;;5.55;3.58;;;;;;;;;;5085306;27;20086;-66
2021/11/28 10:44:16;;;;;;;9.73;4.13;;;;;;;;;;5083190;28;20426;-66
2021/11/28 10:46:42;;;;;;;6.30;3.40;;;;;;;;;;5083985;28;20395;-69
2021/11/28 10:49:11;;;;;;;7.90;3.80;;;;;;;;;;5085937;27;20059;-66
2021/11/28 10:51:40;;;;;;;8.30;6.10;;;;;;;;;;5084984;28;20113;-66
2021/11/28 10:54:23;;;;;;;7.30;3.97;;;;;;;;;;5085030;28;20359;-66
2021/11/28 10:56:50;;;;;;;10.38;4.63;;;;;;;;;;5084870;28;20460;-66
2021/11/28 10:59:19;;;;;;;7.32;4.93;;;;;;;;;;5086485;27;20056;-66
2021/11/28 11:01:45;;;;;;;8.70;5.15;;;;;;;;;;5087853;27;20047;-66
2021/11/28 11:04:18;;;;;;;7.47;4.10;;;;;;;;;;5085368;28;20076;-66
2021/11/28 11:06:45;;;;;;;8.20;4.55;;;;;;;;;;5088837;28;20040;-66
2021/11/28 11:09:21;;;;;;;8.27;4.18;;;;;;;;;;5089457;27;20176;-66
2021/11/28 11:11:50;;;;;;;32.55;7.63;;;;;;;;;;5088348;27;20058;-66
2021/11/28 11:14:17;;;;;;;7.82;4.13;;;;;;;;;;5089598;27;20051;-66
2021/11/28 11:16:48;;;;;;;7.40;4.25;;;;;;;;;;5085592;28;21771;-66
2021/11/28 11:19:29;;;;;;;8.15;4.68;;;;;;;;;;5089699;27;20086;-66
2021/11/28 11:22:00;;;;;;;7.47;4.60;;;;;;;;;;5086560;28;20043;-65
2021/11/28 11:24:27;;;;;;;6.85;4.68;;;;;;;;;;5085618;28;20150;-65
2021/11/28 11:27:05;;;;;;;7.28;4.88;;;;;;;;;;5082073;28;20051;-66
2021/11/28 11:29:31;;;;;;;6.70;4.35;;;;;;;;;;5086225;27;20052;-66
2021/11/28 11:31:58;;;;;;;7.60;4.90;;;;;;;;;;5086867;27;20532;-66
2021/11/28 11:34:26;;;;;;;7.10;4.50;;;;;;;;;;5083479;28;20432;-66
2021/11/28 11:36:55;;;;;;;7.93;4.38;;;;;;;;;;5086206;28;20494;-65
2021/11/28 11:39:21;;;;;;;8.40;5.20;;;;;;;;;;5086301;28;20043;-65
2021/11/28 11:41:48;;;;;;;6.95;4.63;;;;;;;;;;5086647;28;20144;-65
2021/11/28 11:44:17;;;;;;;6.85;4.55;;;;;;;;;;5083859;27;20079;-65
2021/11/28 11:46:46;;;;;;;7.72;5.10;;;;;;;;;;5085407;27;20753;-66
2021/11/28 11:49:13;;;;;;;9.88;5.65;;;;;;;;;;5085528;27;20240;-65
2021/11/28 11:51:41;;;;;;;9.68;5.07;;;;;;;;;;5088993;28;20171;-65
2021/11/28 11:54:09;;;;;;;7.38;4.50;;;;;;;;;;5083487;28;20055;-65
2021/11/28 11:56:36;;;;;;;7.15;5.03;;;;;;;;;;5065937;28;20076;-65
2021/11/28 11:59:07;;;;;;;7.70;5.35;;;;;;;;;;5089599;27;20055;-65
2021/11/28 12:01:36;;;;;;;11.95;6.45;;;;;;;;;;5084806;27;20120;-65
2021/11/28 12:04:02;;;;;;;9.70;5.95;;;;;;;;;;5084571;28;20052;-65
2021/11/28 12:06:49;;;;;;;9.38;5.85;;;;;;;;;;5083417;27;20056;-65
2021/11/28 12:09:25;;;;;;;11.85;6.47;;;;;;;;;;5086166;27;20044;-64
2021/11/28 12:11:55;;;;;;;10.82;5.57;;;;;;;;;;5085163;28;20090;-64
2021/11/28 12:14:22;;;;;;;9.57;5.72;;;;;;;;;;5087499;28;20075;-64
2021/11/28 12:16:50;;;;;;;14.15;5.20;;;;;;;;;;5067706;28;20093;-65
2021/11/28 12:19:38;;;;;;;8.38;5.50;;;;;;;;;;5087371;28;20056;-65
2021/11/28 12:22:05;;;;;;;8.15;4.93;;;;;;;;;;5087888;28;20169;-64
2021/11/28 12:24:31;;;;;;;10.70;5.75;;;;;;;;;;5083904;28;20056;-64
2021/11/28 12:26:59;;;;;;;11.90;5.85;;;;;;;;;;5082120;28;20084;-64
2021/11/28 12:29:34;;;;;;;10.73;6.22;;;;;;;;;;5082334;28;20056;-65
2021/11/28 12:32:16;;;;;;;10.02;4.93;;;;;;;;;;5084408;28;20051;-65
2021/11/28 12:34:45;;;;;;;8.13;5.20;;;;;;;;;;5080899;28;20048;-65
2021/11/28 12:37:25;;;;;;;7.85;5.60;;;;;;;;;;5084569;28;20098;-65
2021/11/28 12:39:52;;;;;;;7.00;4.78;;;;;;;;;;5083537;28;20052;-65
2021/11/28 12:42:24;;;;;;;11.85;5.85;;;;;;;;;;5082335;28;20135;-65
2021/11/28 12:45:01;;;;;;;7.72;5.20;;;;;;;;;;5082083;28;20048;-65
2021/11/28 12:47:30;;;;;;;10.88;5.32;;;;;;;;;;5081586;28;20059;-65
2021/11/28 12:49:58;;;;;;;8.40;5.38;;;;;;;;;;5083299;28;20044;-65
2021/11/28 12:52:39;;;;;;;7.88;4.85;;;;;;;;;;5080677;28;20449;-66
2021/11/28 12:55:17;;;;;;;9.68;5.28;;;;;;;;;;5074084;28;20445;-66
2021/11/28 12:57:45;;;;;;;9.40;5.00;;;;;;;;;;5081096;28;20129;-65
2021/11/28 13:00:19;;;;;;;8.07;5.22;;;;;;;;;;5081476;28;20473;-66
2021/11/28 13:02:48;;;;;;;7.38;4.25;;;;;;;;;;5080902;28;21864;-66
2021/11/28 13:05:35;;;;;;;11.25;5.30;;;;;;;;;;5081721;28;20058;-66
2021/11/28 13:08:31;;;;;;;8.13;4.72;;;;;;;;;;5082732;28;20062;-66
2021/11/28 13:10:58;;;;;;;10.20;6.85;;;;;;;;;;5080972;28;20091;-66
2021/11/28 13:13:28;;;;;;;8.35;4.97;;;;;;;;;;5081407;28;20064;-66
2021/11/28 13:15:57;;;;;;;7.97;5.13;;;;;;;;;;5083058;28;20052;-66
2021/11/28 13:18:29;;;;;;;11.75;6.82;;;;;;;;;;5088817;28;20127;-67
2021/11/28 13:20:57;;;;;;;17.85;8.82;;;;;;;;;;5091217;27;20060;-66
2021/11/28 13:23:24;;;;;;;18.65;10.35;;;;;;;;;;5084949;27;20036;-66
2021/11/28 13:25:52;;;;;;;14.65;6.60;;;;;;;;;;5091381;27;20048;-67
2021/11/28 13:28:21;;;;;;;11.38;5.63;;;;;;;;;;5088010;27;20059;-67
2021/11/28 13:30:50;;;;;;;8.85;4.70;;;;;;;;;;5089169;27;20116;-67
2021/11/28 13:33:18;;;;;;;9.02;4.65;;;;;;;;;;5085185;27;20074;-67
2021/11/28 13:35:54;;;;;;;6.88;4.00;;;;;;;;;;5089016;28;20067;-67
2021/11/28 13:38:22;;;;;;;;;;;;;;;;;;5089072;27;20075;-67
2021/11/28 13:41:10;;;;;;;8.18;4.57;;;;;;;;;;5088480;27;20009;-67
2021/11/28 13:43:39;;;;;;;9.63;5.38;;;;;;;;;;5088762;27;20048;-67
2021/11/28 13:46:06;;;;;;;8.60;5.20;;;;;;;;;;5086207;27;20161;-67
2021/11/28 13:48:57;;;;;;;8.73;5.65;;;;;;;;;;5087301;27;20112;-67
2021/11/28 13:51:46;;;;;;;8.05;5.32;;;;;;;;;;5088525;27;20136;-67
2021/11/28 13:54:15;;;;;;;11.00;6.28;;;;;;;;;;5086786;28;20084;-67
2021/11/28 13:56:45;;;;;;;15.05;7.63;;;;;;;;;;5091740;27;20064;-67
2021/11/28 13:59:13;;;;;;;12.90;6.40;;;;;;;;;;5088481;27;20132;-69
2021/11/28 14:01:39;;;;;;;15.25;9.13;;;;;;;;;;5087346;27;20083;-67
2021/11/28 14:04:18;;;;;;;15.00;9.57;;;;;;;;;;5089229;27;20096;-66
2021/11/28 14:06:46;;;;;;;12.75;9.27;;;;;;;;;;5090171;28;20129;-66
2021/11/28 14:09:13;;;;;;;14.70;8.82;;;;;;;;;;5087595;27;20079;-66
2021/11/28 14:11:40;;;;;;;12.82;8.20;;;;;;;;;;5084788;27;20059;-66
2021/11/28 14:14:10;;;;;;;11.43;7.38;;;;;;;;;;5084187;27;20071;-67
2021/11/28 14:16:36;;;;;;;11.65;6.40;;;;;;;;;;5089999;28;20480;-66
2021/11/28 14:19:04;;;;;;;12.20;8.27;;;;;;;;;;5086151;27;20083;-66
2021/11/28 14:21:32;;;;;;;19.73;9.65;;;;;;;;;;5086009;27;20097;-66
2021/11/28 14:24:01;;;;;;;13.88;8.23;;;;;;;;;;5083092;28;20078;-66
2021/11/28 14:26:30;;;;;;;13.13;7.38;;;;;;;;;;5082985;28;20067;-66
2021/11/28 14:28:57;;;;;;;15.15;8.90;;;;;;;;;;5085639;27;20463;-66
2021/11/28 14:31:23;;;;;;;12.48;7.68;;;;;;;;;;5081390;27;20055;-66
2021/11/28 14:33:52;;;;;;;10.57;6.53;;;;;;;;;;5084798;28;20143;-67
2021/11/28 14:36:21;;;;;;;11.32;7.28;;;;;;;;;;5083019;27;20048;-66
2021/11/28 14:38:49;;;;;;;10.32;5.65;;;;;;;;;;5082556;27;20047;-66
2021/11/28 14:41:19;;;;;;;12.73;7.10;;;;;;;;;;5085080;27;20121;-67
2021/11/28 14:43:57;;;;;;;9.77;5.28;;;;;;;;;;5083365;27;20097;-66
2021/11/28 14:46:25;;;;;;;10.50;6.90;;;;;;;;;;5082947;28;20135;-66
2021/11/28 14:48:57;;;;;;;14.52;7.85;;;;;;;;;;5085978;27;20048;-66
2021/11/28 14:51:33;;;;;;;14.35;7.72;;;;;;;;;;5087940;27;20215;-67